createdAt,value
2022-10-13T00:13:53.561Z,987.5
2022-10-13T00:28:24.810Z,987.7
2022-10-13T00:42:56.237Z,987.6
2022-10-13T00:57:29.079Z,987.6
2022-10-13T01:12:02.751Z,987.5
2022-10-13T01:26:35.277Z,987.4
2022-10-13T01:41:13.563Z,987.2
2022-10-13T01:55:48.349Z,987
2022-10-13T02:10:16.778Z,986.9
2022-10-13T02:24:49.291Z,986.8
2022-10-13T02:39:22.740Z,986.7
2022-10-13T02:54:01.325Z,986.7
2022-10-13T03:08:37.052Z,986.9
2022-10-13T03:23:06.511Z,986.9
2022-10-13T03:37:37.632Z,986.9
2022-10-13T03:52:10.102Z,986.7
2022-10-13T04:06:43.455Z,986.5
2022-10-13T04:21:15.965Z,986.4
2022-10-13T04:35:48.576Z,986.3
2022-10-13T04:50:21.932Z,986.3
2022-10-13T05:04:54.502Z,986.1
2022-10-13T05:19:33.162Z,986.1
2022-10-13T05:34:08.037Z,986.1
2022-10-13T05:48:37.881Z,986.2
2022-10-13T06:03:11.717Z,986
2022-10-13T06:17:44.860Z,985.3
2022-10-13T06:32:18.955Z,985.7
2022-10-13T06:46:49.822Z,986
2022-10-13T07:01:23.130Z,985.7
2022-10-13T07:15:56.365Z,985.9
2022-10-13T07:30:29.948Z,985.9
2022-10-13T07:45:04.102Z,986
2022-10-13T07:59:38.558Z,985.9
2022-10-13T08:14:12.886Z,985.9
2022-10-13T08:29:23.726Z,985.7
2022-10-13T08:59:47.986Z,985.7
2022-10-13T09:14:22.065Z,985.6
2022-10-13T09:28:57.796Z,985.6
2022-10-13T09:43:34.875Z,985.4
2022-10-13T09:58:02.938Z,985.4
2022-10-13T10:12:36.769Z,985.3
2022-10-13T10:27:10.309Z,985.2
2022-10-13T10:41:45.382Z,985.1
2022-10-13T10:56:22.366Z,984.9
2022-10-13T11:10:58.108Z,984.8
2022-10-13T11:25:33.267Z,984.6
2022-10-13T11:40:03.820Z,984.3
2022-10-13T11:54:37.551Z,984.2
2022-10-13T12:09:10.577Z,984.3
2022-10-13T12:23:43.054Z,984.1
2022-10-13T12:38:16.134Z,984.1
2022-10-13T12:52:48.930Z,984
2022-10-13T13:07:20.331Z,984.1
2022-10-13T13:21:53.813Z,984.1
2022-10-13T13:36:24.921Z,984
2022-10-13T13:50:57.721Z,983.9
2022-10-13T14:05:30.488Z,983.8
2022-10-13T14:20:04.484Z,983.7
2022-10-13T14:34:37.422Z,983.5
2022-10-13T14:49:10.593Z,983.5
2022-10-13T15:03:43.472Z,983.4
2022-10-13T15:18:16.576Z,983.4
2022-10-13T15:32:54.901Z,983.3
2022-10-13T15:47:30.068Z,983.4
2022-10-13T16:02:00.002Z,983.3
2022-10-13T16:16:32.557Z,983.2
2022-10-13T16:31:05.274Z,983.1
2022-10-13T16:46:00.659Z,983.1
2022-10-13T17:00:21.612Z,983.1
2022-10-13T17:14:53.765Z,983.1
2022-10-13T17:29:26.006Z,983.1
2022-10-13T17:43:58.000Z,983.1
2022-10-13T17:58:30.713Z,983.1
2022-10-13T18:13:04.372Z,983
2022-10-13T18:27:37.326Z,983.1
2022-10-13T18:42:10.419Z,983.2
2022-10-13T18:56:43.234Z,983.2
2022-10-13T19:11:15.897Z,983.2
2022-10-13T19:25:48.495Z,983.1
2022-10-13T19:40:22.274Z,983.2
2022-10-13T19:54:55.193Z,983.4
2022-10-13T20:09:29.257Z,983.4
2022-10-13T20:24:01.656Z,983.4
2022-10-13T20:38:34.864Z,983.4
2022-10-13T20:53:08.217Z,983.5
2022-10-13T21:07:42.463Z,983.5
2022-10-13T21:22:14.817Z,983.5
2022-10-13T21:36:48.028Z,983.5
2022-10-13T21:51:20.836Z,983.4
2022-10-13T22:05:53.616Z,983.4
2022-10-13T22:20:23.598Z,983.4
2022-10-13T22:35:02.250Z,983.4
2022-10-13T22:49:43.559Z,983.4
2022-10-13T23:04:09.633Z,983.3
2022-10-13T23:18:45.139Z,983.2
2022-10-13T23:33:20.992Z,983.2
2022-10-13T23:47:50.680Z,983
